sensor_id;sensor_type;location;lat;lon;timestamp;P1;durP1;ratioP1;P2;durP2;ratioP2
55559;SDS011;41414;53.250;6.514;2022-11-15T00:01:45;39.60;;;26.33;;
55559;SDS011;41414;53.250;6.514;2022-11-15T00:04:11;39.78;;;26.38;;
55559;SDS011;41414;53.250;6.514;2022-11-15T00:06:37;39.22;;;25.90;;
55559;SDS011;41414;53.250;6.514;2022-11-15T00:09:03;41.92;;;24.95;;
55559;SDS011;41414;53.250;6.514;2022-11-15T00:11:30;37.00;;;25.08;;
55559;SDS011;41414;53.250;6.514;2022-11-15T00:13:56;39.88;;;26.60;;
55559;SDS011;41414;53.250;6.514;2022-11-15T00:16:22;42.25;;;25.80;;
55559;SDS011;41414;53.250;6.514;2022-11-15T00:18:49;41.80;;;26.33;;
55559;SDS011;41414;53.250;6.514;2022-11-15T00:21:16;41.08;;;25.67;;
55559;SDS011;41414;53.250;6.514;2022-11-15T00:23:42;46.22;;;25.40;;
55559;SDS011;41414;53.250;6.514;2022-11-15T00:26:10;41.65;;;25.30;;
55559;SDS011;41414;53.250;6.514;2022-11-15T00:28:37;41.97;;;24.17;;
55559;SDS011;41414;53.250;6.514;2022-11-15T00:31:04;39.05;;;26.58;;
55559;SDS011;41414;53.250;6.514;2022-11-15T00:33:31;39.33;;;25.67;;
55559;SDS011;41414;53.250;6.514;2022-11-15T00:35:59;39.58;;;25.55;;
55559;SDS011;41414;53.250;6.514;2022-11-15T00:38:29;40.67;;;26.30;;
55559;SDS011;41414;53.250;6.514;2022-11-15T00:40:56;39.40;;;25.40;;
55559;SDS011;41414;53.250;6.514;2022-11-15T00:43:22;44.10;;;26.35;;
55559;SDS011;41414;53.250;6.514;2022-11-15T00:45:48;40.67;;;26.05;;
55559;SDS011;41414;53.250;6.514;2022-11-15T00:48:14;39.95;;;25.92;;
55559;SDS011;41414;53.250;6.514;2022-11-15T00:50:40;42.63;;;27.48;;
55559;SDS011;41414;53.250;6.514;2022-11-15T00:53:06;43.78;;;26.98;;
55559;SDS011;41414;53.250;6.514;2022-11-15T00:55:33;39.03;;;26.27;;
55559;SDS011;41414;53.250;6.514;2022-11-15T00:57:59;39.47;;;25.33;;
55559;SDS011;41414;53.250;6.514;2022-11-15T01:00:25;40.63;;;25.70;;
55559;SDS011;41414;53.250;6.514;2022-11-15T01:02:51;39.60;;;26.33;;
55559;SDS011;41414;53.250;6.514;2022-11-15T01:05:17;43.40;;;27.17;;
55559;SDS011;41414;53.250;6.514;2022-11-15T01:07:43;39.55;;;25.58;;
55559;SDS011;41414;53.250;6.514;2022-11-15T01:10:09;40.15;;;25.25;;
55559;SDS011;41414;53.250;6.514;2022-11-15T01:12:36;37.85;;;24.90;;
55559;SDS011;41414;53.250;6.514;2022-11-15T01:15:02;40.40;;;26.80;;
55559;SDS011;41414;53.250;6.514;2022-11-15T01:17:29;37.92;;;23.23;;
55559;SDS011;41414;53.250;6.514;2022-11-15T01:19:56;36.92;;;24.92;;
55559;SDS011;41414;53.250;6.514;2022-11-15T01:22:22;37.17;;;23.80;;
55559;SDS011;41414;53.250;6.514;2022-11-15T01:24:49;43.13;;;26.52;;
55559;SDS011;41414;53.250;6.514;2022-11-15T01:27:15;37.45;;;24.02;;
55559;SDS011;41414;53.250;6.514;2022-11-15T01:29:42;37.28;;;24.38;;
55559;SDS011;41414;53.250;6.514;2022-11-15T01:32:08;35.33;;;24.08;;
55559;SDS011;41414;53.250;6.514;2022-11-15T01:34:34;35.88;;;24.30;;
55559;SDS011;41414;53.250;6.514;2022-11-15T01:37:00;35.80;;;23.15;;
55559;SDS011;41414;53.250;6.514;2022-11-15T01:39:27;37.95;;;24.42;;
55559;SDS011;41414;53.250;6.514;2022-11-15T01:41:53;37.10;;;24.15;;
55559;SDS011;41414;53.250;6.514;2022-11-15T01:47:00;36.67;;;24.38;;
55559;SDS011;41414;53.250;6.514;2022-11-15T01:49:27;41.05;;;24.52;;
55559;SDS011;41414;53.250;6.514;2022-11-15T01:51:56;40.80;;;26.67;;
55559;SDS011;41414;53.250;6.514;2022-11-15T01:54:22;44.85;;;26.95;;
55559;SDS011;41414;53.250;6.514;2022-11-15T01:56:56;49.70;;;27.90;;
55559;SDS011;41414;53.250;6.514;2022-11-15T01:59:25;45.97;;;27.23;;
55559;SDS011;41414;53.250;6.514;2022-11-15T02:01:51;41.55;;;26.70;;
55559;SDS011;41414;53.250;6.514;2022-11-15T02:04:20;43.08;;;26.88;;
55559;SDS011;41414;53.250;6.514;2022-11-15T02:06:47;41.17;;;26.17;;
55559;SDS011;41414;53.250;6.514;2022-11-15T02:09:14;43.67;;;25.88;;
55559;SDS011;41414;53.250;6.514;2022-11-15T02:11:40;44.20;;;27.30;;
55559;SDS011;41414;53.250;6.514;2022-11-15T02:14:07;40.38;;;27.08;;
55559;SDS011;41414;53.250;6.514;2022-11-15T02:21:48;41.17;;;26.50;;
55559;SDS011;41414;53.250;6.514;2022-11-15T02:24:23;42.13;;;26.25;;
55559;SDS011;41414;53.250;6.514;2022-11-15T02:30:04;41.05;;;24.88;;
55559;SDS011;41414;53.250;6.514;2022-11-15T02:35:12;40.80;;;25.08;;
55559;SDS011;41414;53.250;6.514;2022-11-15T02:37:49;44.83;;;26.35;;
55559;SDS011;41414;53.250;6.514;2022-11-15T02:40:31;40.85;;;25.33;;
55559;SDS011;41414;53.250;6.514;2022-11-15T02:43:01;39.58;;;25.58;;
55559;SDS011;41414;53.250;6.514;2022-11-15T02:45:51;40.92;;;26.15;;
55559;SDS011;41414;53.250;6.514;2022-11-15T02:48:17;45.08;;;24.27;;
55559;SDS011;41414;53.250;6.514;2022-11-15T02:50:44;45.15;;;25.58;;
55559;SDS011;41414;53.250;6.514;2022-11-15T02:53:11;44.25;;;24.67;;
55559;SDS011;41414;53.250;6.514;2022-11-15T02:55:38;43.15;;;25.05;;
55559;SDS011;41414;53.250;6.514;2022-11-15T02:58:10;47.92;;;24.60;;
55559;SDS011;41414;53.250;6.514;2022-11-15T03:00:40;49.33;;;26.63;;
55559;SDS011;41414;53.250;6.514;2022-11-15T03:03:21;46.08;;;24.88;;
55559;SDS011;41414;53.250;6.514;2022-11-15T03:05:53;47.58;;;26.65;;
55559;SDS011;41414;53.250;6.514;2022-11-15T03:08:32;50.30;;;26.77;;
55559;SDS011;41414;53.250;6.514;2022-11-15T03:16:03;53.83;;;27.20;;
55559;SDS011;41414;53.250;6.514;2022-11-15T03:18:32;51.30;;;28.60;;
55559;SDS011;41414;53.250;6.514;2022-11-15T03:21:00;50.40;;;27.15;;
55559;SDS011;41414;53.250;6.514;2022-11-15T03:23:27;53.13;;;28.27;;
55559;SDS011;41414;53.250;6.514;2022-11-15T03:25:54;55.47;;;27.10;;
55559;SDS011;41414;53.250;6.514;2022-11-15T03:28:23;57.45;;;27.70;;
55559;SDS011;41414;53.250;6.514;2022-11-15T03:30:50;52.88;;;28.58;;
55559;SDS011;41414;53.250;6.514;2022-11-15T03:33:17;52.50;;;28.00;;
55559;SDS011;41414;53.250;6.514;2022-11-15T03:35:44;53.97;;;28.60;;
55559;SDS011;41414;53.250;6.514;2022-11-15T03:40:38;55.45;;;28.48;;
55559;SDS011;41414;53.250;6.514;2022-11-15T03:43:10;52.97;;;27.25;;
55559;SDS011;41414;53.250;6.514;2022-11-15T03:45:46;57.38;;;28.65;;
55559;SDS011;41414;53.250;6.514;2022-11-15T03:48:18;56.97;;;29.10;;
55559;SDS011;41414;53.250;6.514;2022-11-15T03:50:47;54.58;;;28.50;;
55559;SDS011;41414;53.250;6.514;2022-11-15T03:53:14;53.40;;;29.02;;
55559;SDS011;41414;53.250;6.514;2022-11-15T03:55:40;61.15;;;30.20;;
55559;SDS011;41414;53.250;6.514;2022-11-15T03:58:06;58.15;;;29.70;;
55559;SDS011;41414;53.250;6.514;2022-11-15T04:00:32;57.75;;;30.17;;
55559;SDS011;41414;53.250;6.514;2022-11-15T04:02:58;55.10;;;28.98;;
55559;SDS011;41414;53.250;6.514;2022-11-15T04:05:24;56.65;;;28.50;;
55559;SDS011;41414;53.250;6.514;2022-11-15T04:07:51;57.00;;;27.95;;
55559;SDS011;41414;53.250;6.514;2022-11-15T04:10:17;55.95;;;28.20;;
55559;SDS011;41414;53.250;6.514;2022-11-15T04:12:43;59.00;;;29.05;;
55559;SDS011;41414;53.250;6.514;2022-11-15T04:15:14;54.92;;;28.27;;
55559;SDS011;41414;53.250;6.514;2022-11-15T04:17:42;60.03;;;30.20;;
55559;SDS011;41414;53.250;6.514;2022-11-15T04:20:13;52.78;;;28.90;;
55559;SDS011;41414;53.250;6.514;2022-11-15T04:22:59;58.47;;;28.48;;
55559;SDS011;41414;53.250;6.514;2022-11-15T04:25:44;58.63;;;28.58;;
55559;SDS011;41414;53.250;6.514;2022-11-15T04:28:11;58.38;;;29.55;;
55559;SDS011;41414;53.250;6.514;2022-11-15T04:30:37;58.35;;;29.70;;
55559;SDS011;41414;53.250;6.514;2022-11-15T04:33:03;58.45;;;29.50;;
55559;SDS011;41414;53.250;6.514;2022-11-15T04:35:30;60.47;;;30.27;;
55559;SDS011;41414;53.250;6.514;2022-11-15T04:37:57;56.88;;;28.95;;
55559;SDS011;41414;53.250;6.514;2022-11-15T04:40:23;60.13;;;29.50;;
55559;SDS011;41414;53.250;6.514;2022-11-15T04:42:49;53.00;;;28.00;;
55559;SDS011;41414;53.250;6.514;2022-11-15T04:45:15;53.85;;;28.65;;
55559;SDS011;41414;53.250;6.514;2022-11-15T04:47:43;58.92;;;29.73;;
55559;SDS011;41414;53.250;6.514;2022-11-15T04:50:10;65.85;;;30.55;;
55559;SDS011;41414;53.250;6.514;2022-11-15T04:52:42;57.75;;;30.77;;
55559;SDS011;41414;53.250;6.514;2022-11-15T04:55:10;62.73;;;30.03;;
55559;SDS011;41414;53.250;6.514;2022-11-15T04:57:36;60.72;;;29.95;;
55559;SDS011;41414;53.250;6.514;2022-11-15T05:00:04;56.53;;;29.60;;
55559;SDS011;41414;53.250;6.514;2022-11-15T05:02:31;68.47;;;31.25;;
55559;SDS011;41414;53.250;6.514;2022-11-15T05:05:26;69.25;;;32.08;;
55559;SDS011;41414;53.250;6.514;2022-11-15T05:07:53;71.93;;;32.58;;
55559;SDS011;41414;53.250;6.514;2022-11-15T05:10:19;75.05;;;33.05;;
55559;SDS011;41414;53.250;6.514;2022-11-15T05:12:46;79.93;;;34.00;;
55559;SDS011;41414;53.250;6.514;2022-11-15T05:15:12;67.50;;;33.58;;
55559;SDS011;41414;53.250;6.514;2022-11-15T05:17:38;76.28;;;36.70;;
55559;SDS011;41414;53.250;6.514;2022-11-15T05:20:04;80.03;;;35.15;;
55559;SDS011;41414;53.250;6.514;2022-11-15T05:22:31;74.85;;;34.50;;
55559;SDS011;41414;53.250;6.514;2022-11-15T05:24:57;76.65;;;34.65;;
55559;SDS011;41414;53.250;6.514;2022-11-15T05:27:23;86.30;;;37.30;;
55559;SDS011;41414;53.250;6.514;2022-11-15T05:29:49;87.43;;;37.78;;
55559;SDS011;41414;53.250;6.514;2022-11-15T05:32:15;88.18;;;38.05;;
55559;SDS011;41414;53.250;6.514;2022-11-15T05:34:42;80.25;;;38.05;;
55559;SDS011;41414;53.250;6.514;2022-11-15T05:37:08;91.80;;;39.17;;
55559;SDS011;41414;53.250;6.514;2022-11-15T05:39:35;97.38;;;41.38;;
55559;SDS011;41414;53.250;6.514;2022-11-15T05:42:04;101.80;;;39.80;;
55559;SDS011;41414;53.250;6.514;2022-11-15T05:44:32;112.10;;;42.90;;
55559;SDS011;41414;53.250;6.514;2022-11-15T05:46:59;101.18;;;41.60;;
55559;SDS011;41414;53.250;6.514;2022-11-15T05:49:26;112.55;;;44.63;;
55559;SDS011;41414;53.250;6.514;2022-11-15T05:51:53;109.75;;;44.63;;
55559;SDS011;41414;53.250;6.514;2022-11-15T05:54:20;108.50;;;45.25;;
55559;SDS011;41414;53.250;6.514;2022-11-15T05:56:47;115.80;;;45.10;;
55559;SDS011;41414;53.250;6.514;2022-11-15T05:59:14;120.88;;;46.55;;
55559;SDS011;41414;53.250;6.514;2022-11-15T06:01:41;110.85;;;45.22;;
55559;SDS011;41414;53.250;6.514;2022-11-15T06:04:07;129.77;;;49.40;;
55559;SDS011;41414;53.250;6.514;2022-11-15T06:06:34;128.63;;;48.45;;
55559;SDS011;41414;53.250;6.514;2022-11-15T06:09:00;136.07;;;52.80;;
55559;SDS011;41414;53.250;6.514;2022-11-15T06:11:26;129.35;;;48.20;;
55559;SDS011;41414;53.250;6.514;2022-11-15T06:13:52;131.30;;;49.08;;
55559;SDS011;41414;53.250;6.514;2022-11-15T06:16:18;139.57;;;51.85;;
55559;SDS011;41414;53.250;6.514;2022-11-15T06:18:44;151.23;;;54.40;;
55559;SDS011;41414;53.250;6.514;2022-11-15T06:21:10;156.75;;;53.50;;
55559;SDS011;41414;53.250;6.514;2022-11-15T06:23:37;152.40;;;54.78;;
55559;SDS011;41414;53.250;6.514;2022-11-15T06:26:03;153.32;;;55.22;;
55559;SDS011;41414;53.250;6.514;2022-11-15T06:28:29;147.23;;;53.92;;
55559;SDS011;41414;53.250;6.514;2022-11-15T06:30:56;151.38;;;54.30;;
55559;SDS011;41414;53.250;6.514;2022-11-15T06:33:22;149.82;;;54.38;;
55559;SDS011;41414;53.250;6.514;2022-11-15T06:35:48;137.52;;;53.60;;
55559;SDS011;41414;53.250;6.514;2022-11-15T06:38:15;154.25;;;56.63;;
55559;SDS011;41414;53.250;6.514;2022-11-15T06:40:41;142.10;;;53.00;;
55559;SDS011;41414;53.250;6.514;2022-11-15T06:43:07;159.18;;;56.90;;
55559;SDS011;41414;53.250;6.514;2022-11-15T06:45:33;146.02;;;55.08;;
55559;SDS011;41414;53.250;6.514;2022-11-15T06:47:59;147.00;;;56.15;;
55559;SDS011;41414;53.250;6.514;2022-11-15T06:50:25;181.57;;;58.63;;
55559;SDS011;41414;53.250;6.514;2022-11-15T06:52:52;170.23;;;59.30;;
55559;SDS011;41414;53.250;6.514;2022-11-15T06:55:19;137.43;;;53.78;;
55559;SDS011;41414;53.250;6.514;2022-11-15T06:57:46;155.55;;;57.97;;
55559;SDS011;41414;53.250;6.514;2022-11-15T07:00:12;140.48;;;54.50;;
55559;SDS011;41414;53.250;6.514;2022-11-15T07:02:39;166.68;;;58.47;;
55559;SDS011;41414;53.250;6.514;2022-11-15T07:05:05;138.93;;;55.60;;
55559;SDS011;41414;53.250;6.514;2022-11-15T07:07:31;147.90;;;57.67;;
55559;SDS011;41414;53.250;6.514;2022-11-15T07:09:57;142.75;;;56.35;;
55559;SDS011;41414;53.250;6.514;2022-11-15T07:12:23;150.93;;;57.58;;
55559;SDS011;41414;53.250;6.514;2022-11-15T07:14:50;144.55;;;58.90;;
55559;SDS011;41414;53.250;6.514;2022-11-15T07:17:16;144.90;;;57.60;;
55559;SDS011;41414;53.250;6.514;2022-11-15T07:19:42;142.15;;;54.85;;
55559;SDS011;41414;53.250;6.514;2022-11-15T07:22:08;144.10;;;58.67;;
55559;SDS011;41414;53.250;6.514;2022-11-15T07:24:34;138.77;;;54.35;;
55559;SDS011;41414;53.250;6.514;2022-11-15T07:27:00;144.68;;;56.33;;
55559;SDS011;41414;53.250;6.514;2022-11-15T07:29:26;135.38;;;53.33;;
55559;SDS011;41414;53.250;6.514;2022-11-15T07:31:53;143.65;;;56.38;;
55559;SDS011;41414;53.250;6.514;2022-11-15T07:34:19;131.55;;;54.80;;
55559;SDS011;41414;53.250;6.514;2022-11-15T07:36:45;144.27;;;56.45;;
55559;SDS011;41414;53.250;6.514;2022-11-15T07:39:11;133.82;;;53.13;;
55559;SDS011;41414;53.250;6.514;2022-11-15T07:41:39;116.65;;;51.20;;
55559;SDS011;41414;53.250;6.514;2022-11-15T07:44:05;124.30;;;52.92;;
55559;SDS011;41414;53.250;6.514;2022-11-15T07:46:31;117.15;;;52.72;;
55559;SDS011;41414;53.250;6.514;2022-11-15T07:48:58;117.45;;;49.60;;
55559;SDS011;41414;53.250;6.514;2022-11-15T07:51:24;123.85;;;51.17;;
55559;SDS011;41414;53.250;6.514;2022-11-15T07:53:50;113.35;;;48.85;;
55559;SDS011;41414;53.250;6.514;2022-11-15T07:56:16;96.20;;;47.80;;
55559;SDS011;41414;53.250;6.514;2022-11-15T07:58:42;108.30;;;47.22;;
55559;SDS011;41414;53.250;6.514;2022-11-15T08:01:11;102.07;;;48.40;;
55559;SDS011;41414;53.250;6.514;2022-11-15T08:03:38;96.18;;;45.55;;
55559;SDS011;41414;53.250;6.514;2022-11-15T08:06:04;109.78;;;45.58;;
55559;SDS011;41414;53.250;6.514;2022-11-15T08:08:30;91.25;;;44.95;;
55559;SDS011;41414;53.250;6.514;2022-11-15T08:10:57;94.00;;;44.72;;
55559;SDS011;41414;53.250;6.514;2022-11-15T08:13:23;89.50;;;41.05;;
55559;SDS011;41414;53.250;6.514;2022-11-15T08:15:49;93.30;;;42.50;;
55559;SDS011;41414;53.250;6.514;2022-11-15T08:18:16;82.82;;;42.25;;
55559;SDS011;41414;53.250;6.514;2022-11-15T08:20:42;89.43;;;43.45;;
55559;SDS011;41414;53.250;6.514;2022-11-15T08:23:09;80.07;;;42.28;;
55559;SDS011;41414;53.250;6.514;2022-11-15T08:25:36;86.70;;;42.03;;
55559;SDS011;41414;53.250;6.514;2022-11-15T08:28:04;79.50;;;40.08;;
55559;SDS011;41414;53.250;6.514;2022-11-15T08:30:33;74.45;;;39.63;;
55559;SDS011;41414;53.250;6.514;2022-11-15T08:33:01;71.03;;;36.85;;
55559;SDS011;41414;53.250;6.514;2022-11-15T08:35:27;69.25;;;37.40;;
55559;SDS011;41414;53.250;6.514;2022-11-15T08:37:54;65.13;;;37.17;;
55559;SDS011;41414;53.250;6.514;2022-11-15T08:40:20;68.05;;;35.60;;
55559;SDS011;41414;53.250;6.514;2022-11-15T08:42:47;70.40;;;36.85;;
55559;SDS011;41414;53.250;6.514;2022-11-15T08:45:13;64.03;;;35.65;;
55559;SDS011;41414;53.250;6.514;2022-11-15T08:47:39;59.70;;;35.97;;
55559;SDS011;41414;53.250;6.514;2022-11-15T08:50:06;60.10;;;34.67;;
55559;SDS011;41414;53.250;6.514;2022-11-15T08:52:32;62.85;;;34.63;;
55559;SDS011;41414;53.250;6.514;2022-11-15T08:54:59;57.97;;;33.28;;
55559;SDS011;41414;53.250;6.514;2022-11-15T08:57:27;59.85;;;33.95;;
55559;SDS011;41414;53.250;6.514;2022-11-15T08:59:55;59.72;;;33.67;;
55559;SDS011;41414;53.250;6.514;2022-11-15T09:02:21;61.22;;;33.28;;
55559;SDS011;41414;53.250;6.514;2022-11-15T09:04:47;55.10;;;31.33;;
55559;SDS011;41414;53.250;6.514;2022-11-15T09:07:13;48.83;;;30.83;;
55559;SDS011;41414;53.250;6.514;2022-11-15T09:09:40;54.70;;;30.38;;
55559;SDS011;41414;53.250;6.514;2022-11-15T09:12:06;53.97;;;30.17;;
55559;SDS011;41414;53.250;6.514;2022-11-15T09:14:33;53.70;;;29.45;;
55559;SDS011;41414;53.250;6.514;2022-11-15T09:16:59;53.65;;;29.77;;
55559;SDS011;41414;53.250;6.514;2022-11-15T09:19:26;51.47;;;28.60;;
55559;SDS011;41414;53.250;6.514;2022-11-15T09:21:52;49.13;;;27.85;;
55559;SDS011;41414;53.250;6.514;2022-11-15T09:24:18;47.05;;;26.80;;
55559;SDS011;41414;53.250;6.514;2022-11-15T09:26:44;44.15;;;26.88;;
55559;SDS011;41414;53.250;6.514;2022-11-15T09:29:11;41.13;;;25.42;;
55559;SDS011;41414;53.250;6.514;2022-11-15T09:31:37;39.35;;;24.42;;
55559;SDS011;41414;53.250;6.514;2022-11-15T09:34:03;40.60;;;25.02;;
55559;SDS011;41414;53.250;6.514;2022-11-15T09:36:29;39.85;;;25.65;;
55559;SDS011;41414;53.250;6.514;2022-11-15T09:38:57;41.75;;;25.55;;
55559;SDS011;41414;53.250;6.514;2022-11-15T09:46:38;39.75;;;23.63;;
55559;SDS011;41414;53.250;6.514;2022-11-15T09:49:08;37.45;;;23.55;;
55559;SDS011;41414;53.250;6.514;2022-11-15T09:51:36;42.92;;;23.98;;
55559;SDS011;41414;53.250;6.514;2022-11-15T09:54:25;40.58;;;25.23;;
55559;SDS011;41414;53.250;6.514;2022-11-15T09:56:52;35.20;;;22.60;;
55559;SDS011;41414;53.250;6.514;2022-11-15T10:04:20;33.35;;;21.85;;
55559;SDS011;41414;53.250;6.514;2022-11-15T10:06:58;45.35;;;24.17;;
55559;SDS011;41414;53.250;6.514;2022-11-15T10:09:30;33.30;;;21.92;;
55559;SDS011;41414;53.250;6.514;2022-11-15T10:11:57;35.55;;;21.52;;
55559;SDS011;41414;53.250;6.514;2022-11-15T10:14:25;39.10;;;21.40;;
55559;SDS011;41414;53.250;6.514;2022-11-15T10:19:26;35.25;;;21.52;;
55559;SDS011;41414;53.250;6.514;2022-11-15T10:22:12;42.53;;;23.83;;
55559;SDS011;41414;53.250;6.514;2022-11-15T10:24:43;35.15;;;21.50;;
55559;SDS011;41414;53.250;6.514;2022-11-15T10:27:11;38.45;;;22.17;;
55559;SDS011;41414;53.250;6.514;2022-11-15T10:29:42;35.80;;;21.83;;
55559;SDS011;41414;53.250;6.514;2022-11-15T10:32:09;37.17;;;22.05;;
55559;SDS011;41414;53.250;6.514;2022-11-15T10:34:36;38.45;;;21.90;;
55559;SDS011;41414;53.250;6.514;2022-11-15T10:37:02;35.03;;;20.85;;
55559;SDS011;41414;53.250;6.514;2022-11-15T10:39:28;32.60;;;20.15;;
55559;SDS011;41414;53.250;6.514;2022-11-15T10:41:54;35.72;;;20.23;;
55559;SDS011;41414;53.250;6.514;2022-11-15T10:44:24;35.47;;;20.50;;
55559;SDS011;41414;53.250;6.514;2022-11-15T10:49:25;31.90;;;20.42;;
55559;SDS011;41414;53.250;6.514;2022-11-15T10:51:55;37.35;;;21.15;;
55559;SDS011;41414;53.250;6.514;2022-11-15T10:54:23;33.42;;;21.40;;
55559;SDS011;41414;53.250;6.514;2022-11-15T10:56:51;30.02;;;20.02;;
55559;SDS011;41414;53.250;6.514;2022-11-15T10:59:33;34.00;;;19.92;;
55559;SDS011;41414;53.250;6.514;2022-11-15T11:02:01;28.85;;;19.63;;
55559;SDS011;41414;53.250;6.514;2022-11-15T11:04:28;36.05;;;20.48;;
55559;SDS011;41414;53.250;6.514;2022-11-15T11:06:55;32.35;;;18.90;;
55559;SDS011;41414;53.250;6.514;2022-11-15T11:09:22;33.20;;;20.92;;
55559;SDS011;41414;53.250;6.514;2022-11-15T11:11:50;31.48;;;18.88;;
55559;SDS011;41414;53.250;6.514;2022-11-15T11:14:20;31.30;;;19.05;;
55559;SDS011;41414;53.250;6.514;2022-11-15T11:19:21;33.17;;;20.98;;
55559;SDS011;41414;53.250;6.514;2022-11-15T11:21:54;34.70;;;19.10;;
55559;SDS011;41414;53.250;6.514;2022-11-15T11:24:31;33.08;;;21.13;;
55559;SDS011;41414;53.250;6.514;2022-11-15T11:27:04;32.50;;;19.38;;
55559;SDS011;41414;53.250;6.514;2022-11-15T11:29:38;33.65;;;19.38;;
55559;SDS011;41414;53.250;6.514;2022-11-15T11:32:13;32.28;;;18.33;;
55559;SDS011;41414;53.250;6.514;2022-11-15T11:37:11;25.30;;;17.95;;
55559;SDS011;41414;53.250;6.514;2022-11-15T11:42:15;25.73;;;17.65;;
55559;SDS011;41414;53.250;6.514;2022-11-15T11:44:48;27.42;;;17.73;;
55559;SDS011;41414;53.250;6.514;2022-11-15T11:47:24;25.88;;;17.88;;
55559;SDS011;41414;53.250;6.514;2022-11-15T11:49:59;28.52;;;18.17;;
55559;SDS011;41414;53.250;6.514;2022-11-15T11:52:38;23.67;;;16.20;;
55559;SDS011;41414;53.250;6.514;2022-11-15T11:55:17;29.88;;;17.88;;
55559;SDS011;41414;53.250;6.514;2022-11-15T12:00:20;20.50;;;15.52;;
55559;SDS011;41414;53.250;6.514;2022-11-15T12:03:01;20.95;;;14.90;;
55559;SDS011;41414;53.250;6.514;2022-11-15T12:05:31;18.23;;;14.10;;
55559;SDS011;41414;53.250;6.514;2022-11-15T12:08:01;19.35;;;14.98;;
55559;SDS011;41414;53.250;6.514;2022-11-15T12:10:29;18.67;;;13.43;;
55559;SDS011;41414;53.250;6.514;2022-11-15T12:15:31;18.27;;;12.95;;
55559;SDS011;41414;53.250;6.514;2022-11-15T12:17:58;17.20;;;12.45;;
55559;SDS011;41414;53.250;6.514;2022-11-15T12:20:32;18.00;;;12.75;;
55559;SDS011;41414;53.250;6.514;2022-11-15T12:23:03;15.40;;;11.25;;
55559;SDS011;41414;53.250;6.514;2022-11-15T12:25:33;16.45;;;10.68;;
55559;SDS011;41414;53.250;6.514;2022-11-15T12:28:06;18.63;;;10.60;;
55559;SDS011;41414;53.250;6.514;2022-11-15T12:30:40;9.55;;;6.70;;
55559;SDS011;41414;53.250;6.514;2022-11-15T12:33:15;7.87;;;5.57;;
55559;SDS011;41414;53.250;6.514;2022-11-15T12:35:58;10.68;;;6.05;;
55559;SDS011;41414;53.250;6.514;2022-11-15T12:41:16;11.07;;;4.65;;
55559;SDS011;41414;53.250;6.514;2022-11-15T12:43:43;5.93;;;4.05;;
55559;SDS011;41414;53.250;6.514;2022-11-15T12:46:11;9.77;;;3.88;;
55559;SDS011;41414;53.250;6.514;2022-11-15T12:51:04;6.85;;;3.40;;
55559;SDS011;41414;53.250;6.514;2022-11-15T12:53:32;7.82;;;3.88;;
55559;SDS011;41414;53.250;6.514;2022-11-15T12:56:08;8.13;;;4.22;;
55559;SDS011;41414;53.250;6.514;2022-11-15T13:01:54;5.82;;;3.08;;
55559;SDS011;41414;53.250;6.514;2022-11-15T13:09:49;9.52;;;2.88;;
55559;SDS011;41414;53.250;6.514;2022-11-15T13:11:52;7.30;;;2.83;;
55559;SDS011;41414;53.250;6.514;2022-11-15T13:14:48;5.30;;;3.00;;
55559;SDS011;41414;53.250;6.514;2022-11-15T13:22:49;7.50;;;2.90;;
55559;SDS011;41414;53.250;6.514;2022-11-15T13:25:16;7.88;;;3.40;;
55559;SDS011;41414;53.250;6.514;2022-11-15T13:27:46;8.00;;;4.15;;
55559;SDS011;41414;53.250;6.514;2022-11-15T13:30:15;11.05;;;4.38;;
55559;SDS011;41414;53.250;6.514;2022-11-15T13:32:42;7.47;;;4.63;;
55559;SDS011;41414;53.250;6.514;2022-11-15T13:35:08;8.82;;;5.40;;
55559;SDS011;41414;53.250;6.514;2022-11-15T13:37:34;9.27;;;4.95;;
55559;SDS011;41414;53.250;6.514;2022-11-15T13:40:18;9.50;;;5.00;;
55559;SDS011;41414;53.250;6.514;2022-11-15T13:42:45;9.48;;;5.00;;
55559;SDS011;41414;53.250;6.514;2022-11-15T13:45:13;6.68;;;4.85;;
55559;SDS011;41414;53.250;6.514;2022-11-15T13:47:40;10.45;;;5.10;;
55559;SDS011;41414;53.250;6.514;2022-11-15T13:50:10;9.68;;;5.40;;
55559;SDS011;41414;53.250;6.514;2022-11-15T13:52:36;8.68;;;4.68;;
55559;SDS011;41414;53.250;6.514;2022-11-15T13:57:45;7.05;;;4.72;;
55559;SDS011;41414;53.250;6.514;2022-11-15T14:00:24;6.68;;;4.65;;
55559;SDS011;41414;53.250;6.514;2022-11-15T14:02:51;8.07;;;4.65;;
55559;SDS011;41414;53.250;6.514;2022-11-15T14:05:18;6.78;;;4.82;;
55559;SDS011;41414;53.250;6.514;2022-11-15T14:07:53;7.63;;;4.70;;
55559;SDS011;41414;53.250;6.514;2022-11-15T14:10:25;7.75;;;4.20;;
55559;SDS011;41414;53.250;6.514;2022-11-15T14:12:51;8.93;;;4.43;;
55559;SDS011;41414;53.250;6.514;2022-11-15T14:15:23;7.30;;;4.47;;
55559;SDS011;41414;53.250;6.514;2022-11-15T14:17:51;6.97;;;4.13;;
55559;SDS011;41414;53.250;6.514;2022-11-15T14:20:26;7.35;;;3.78;;
55559;SDS011;41414;53.250;6.514;2022-11-15T14:22:54;6.70;;;3.95;;
55559;SDS011;41414;53.250;6.514;2022-11-15T14:25:23;7.22;;;4.10;;
55559;SDS011;41414;53.250;6.514;2022-11-15T14:30:34;8.35;;;4.32;;
55559;SDS011;41414;53.250;6.514;2022-11-15T14:33:00;9.60;;;4.28;;
55559;SDS011;41414;53.250;6.514;2022-11-15T14:35:27;8.18;;;4.15;;
55559;SDS011;41414;53.250;6.514;2022-11-15T14:37:53;5.60;;;3.92;;
55559;SDS011;41414;53.250;6.514;2022-11-15T14:40:20;6.68;;;3.83;;
55559;SDS011;41414;53.250;6.514;2022-11-15T14:42:48;6.55;;;3.80;;
55559;SDS011;41414;53.250;6.514;2022-11-15T14:45:15;5.88;;;4.18;;
55559;SDS011;41414;53.250;6.514;2022-11-15T14:47:42;6.22;;;4.05;;
55559;SDS011;41414;53.250;6.514;2022-11-15T14:52:53;7.97;;;4.10;;
55559;SDS011;41414;53.250;6.514;2022-11-15T14:55:20;6.00;;;4.05;;
55559;SDS011;41414;53.250;6.514;2022-11-15T14:57:48;5.35;;;3.80;;
55559;SDS011;41414;53.250;6.514;2022-11-15T15:00:15;6.30;;;3.88;;
55559;SDS011;41414;53.250;6.514;2022-11-15T15:02:42;7.55;;;3.38;;
55559;SDS011;41414;53.250;6.514;2022-11-15T15:05:17;7.65;;;3.72;;
55559;SDS011;41414;53.250;6.514;2022-11-15T15:07:43;5.30;;;2.60;;
55559;SDS011;41414;53.250;6.514;2022-11-15T15:10:10;4.20;;;2.78;;
55559;SDS011;41414;53.250;6.514;2022-11-15T15:12:36;11.55;;;3.40;;
55559;SDS011;41414;53.250;6.514;2022-11-15T15:15:03;6.82;;;3.35;;
55559;SDS011;41414;53.250;6.514;2022-11-15T15:17:29;8.32;;;3.35;;
55559;SDS011;41414;53.250;6.514;2022-11-15T15:19:55;6.70;;;3.15;;
55559;SDS011;41414;53.250;6.514;2022-11-15T15:22:21;5.50;;;2.92;;
55559;SDS011;41414;53.250;6.514;2022-11-15T15:24:50;8.68;;;3.35;;
55559;SDS011;41414;53.250;6.514;2022-11-15T15:27:16;8.52;;;3.63;;
55559;SDS011;41414;53.250;6.514;2022-11-15T15:29:43;4.82;;;3.33;;
55559;SDS011;41414;53.250;6.514;2022-11-15T15:32:09;5.47;;;2.95;;
55559;SDS011;41414;53.250;6.514;2022-11-15T15:34:36;6.20;;;3.63;;
55559;SDS011;41414;53.250;6.514;2022-11-15T15:37:18;6.60;;;3.30;;
55559;SDS011;41414;53.250;6.514;2022-11-15T15:39:47;6.15;;;3.80;;
55559;SDS011;41414;53.250;6.514;2022-11-15T15:42:14;6.88;;;3.92;;
55559;SDS011;41414;53.250;6.514;2022-11-15T15:44:40;8.30;;;4.93;;
55559;SDS011;41414;53.250;6.514;2022-11-15T15:47:09;9.18;;;5.28;;